3M5 weather

Moontown Airport
Huntsville, Alabama, United States

Public forecast

Using degrees Fahrenheit for public forecast. Weather courtesy of forecast.io.

METAR (pilot weather report)

Closest report is Madison County Executive Airport-Tom Sharp Jr Field, 8.3 nm (15.4 km) NW. Retrieved 2019/04/22 04:15 UTC (0 seconds ago):

KMDQ 220415Z AUTO 00000KT 10SM CLR 10/09 A3016 RMK A02 T00990089

TAF (pilot weather forecast)

Forecast is more than 12 hours old.

Closest forecast is Huntsville International Carl T Jones Field, 16.8 nm (31.2 km) WSW. Retrieved 2019/04/21 00:39 UTC (1 day ago):

TAF KHSV 212336Z 2200/2224 VRB04KT P6SM SKC FM222100 21006KT P6SM SKC